Time;durP1;ratioP1;P1;durP2;ratioP2;P2;SDS_P1;SDS_P2;PMS_P1;PMS_P2;Temp;Humidity;BMP_temperature;BMP_pressure;BME280_temperature;BME280_humidity;BME280_pressure;Samples;Min_cycle;Max_cycle;Signal;HPM_P1;HPM_P2
2022/11/25 00:00:50;;;;;;;0.00;0.00;;;5.70;99.90;;;;;;5064514;28;20177;-80
2022/11/25 00:03:16;;;;;;;0.00;0.00;;;5.70;99.90;;;;;;5062414;28;20750;-80
2022/11/25 00:05:42;;;;;;;0.10;0.10;;;5.80;99.90;;;;;;5064802;28;20261;-80
2022/11/25 00:08:07;;;;;;;0.10;0.10;;;5.90;99.90;;;;;;5062862;28;20571;-80
2022/11/25 00:10:34;;;;;;;0.03;0.03;;;5.90;99.90;;;;;;5064557;28;20548;-80
2022/11/25 00:12:59;;;;;;;0.03;0.03;;;6.10;99.90;;;;;;5064066;28;20193;-80
2022/11/25 00:15:25;;;;;;;0.00;0.00;;;6.10;99.90;;;;;;5065050;28;21126;-80
2022/11/25 00:17:51;;;;;;;0.00;0.00;;;6.10;99.90;;;;;;5063404;28;20185;-80
2022/11/25 00:20:19;;;;;;;0.00;0.00;;;6.10;99.90;;;;;;5065082;28;20213;-80
2022/11/25 00:22:44;;;;;;;0.10;0.10;;;6.00;99.90;;;;;;5064603;28;20242;-80
2022/11/25 00:25:10;;;;;;;0.00;0.00;;;6.00;99.90;;;;;;5064752;28;20216;-80
2022/11/25 00:27:36;;;;;;;0.10;0.10;;;5.90;99.90;;;;;;5064697;28;20254;-80
2022/11/25 00:30:03;;;;;;;0.10;0.10;;;6.10;99.90;;;;;;5064293;28;20214;-80
2022/11/25 00:32:28;;;;;;;0.10;0.10;;;6.30;99.90;;;;;;5064414;28;20185;-80
2022/11/25 00:34:54;;;;;;;0.10;0.10;;;6.40;99.90;;;;;;5064057;28;20217;-80
2022/11/25 00:37:19;;;;;;;0.10;0.10;;;6.30;99.90;;;;;;5065818;28;20197;-80
2022/11/25 00:39:45;;;;;;;0.10;0.10;;;6.30;99.90;;;;;;5064786;28;20188;-80
2022/11/25 00:44:54;;;;;;;0.10;0.10;;;6.50;99.90;;;;;;5066785;28;20243;-79
2022/11/25 00:47:20;;;;;;;0.10;0.10;;;6.70;99.90;;;;;;5064926;28;20236;-80
2022/11/25 00:49:52;;;;;;;0.10;0.10;;;6.80;99.90;;;;;;5065000;28;20211;-81
2022/11/25 00:52:23;;;;;;;0.10;0.10;;;6.70;99.90;;;;;;5065259;28;20251;-80
2022/11/25 00:54:50;;;;;;;0.10;0.10;;;6.50;99.90;;;;;;5064739;28;20204;-80
2022/11/25 00:57:17;;;;;;;0.10;0.10;;;6.40;99.90;;;;;;5065035;28;20185;-80
2022/11/25 00:59:43;;;;;;;0.10;0.10;;;6.40;99.90;;;;;;5081826;28;20234;-80
2022/11/25 01:02:10;;;;;;;0.00;0.00;;;6.30;99.90;;;;;;5064465;28;20183;-80
2022/11/25 01:04:36;;;;;;;0.10;0.10;;;6.40;99.90;;;;;;5066197;28;20243;-80
2022/11/25 01:07:01;;;;;;;0.10;0.10;;;6.50;99.90;;;;;;5064906;28;20240;-80
2022/11/25 01:09:27;;;;;;;0.07;0.07;;;6.70;99.90;;;;;;5066948;28;20184;-81
2022/11/25 01:11:53;;;;;;;0.00;0.00;;;6.70;99.90;;;;;;5096118;28;20185;-80
2022/11/25 01:14:20;;;;;;;0.07;0.07;;;6.90;99.90;;;;;;5077301;28;20925;-80
2022/11/25 01:16:46;;;;;;;0.10;0.10;;;7.00;99.90;;;;;;5078099;28;20182;-79
2022/11/25 01:19:12;;;;;;;0.10;0.10;;;6.90;99.90;;;;;;5078814;28;20194;-80
2022/11/25 01:21:38;;;;;;;0.00;0.00;;;7.10;99.90;;;;;;5078650;28;20239;-79
2022/11/25 01:24:06;;;;;;;0.10;0.10;;;7.10;99.90;;;;;;5071513;28;20209;-79
2022/11/25 01:26:32;;;;;;;0.10;0.10;;;7.10;99.90;;;;;;5068499;28;20220;-79
2022/11/25 01:29:00;;;;;;;0.10;0.10;;;7.30;99.90;;;;;;5067988;28;20272;-79
2022/11/25 01:31:29;;;;;;;0.10;0.10;;;7.40;99.90;;;;;;5084462;28;20187;-79
2022/11/25 01:33:58;;;;;;;0.10;0.10;;;7.50;99.90;;;;;;5067257;28;20281;-79
2022/11/25 01:36:24;;;;;;;0.10;0.10;;;7.60;99.90;;;;;;5065782;28;20193;-79
2022/11/25 01:38:52;;;;;;;0.10;0.10;;;7.60;99.90;;;;;;5066527;28;20529;-79
2022/11/25 01:41:18;;;;;;;0.10;0.10;;;7.70;99.90;;;;;;5066906;28;20181;-79
2022/11/25 01:44:01;;;;;;;0.10;0.10;;;7.70;99.90;;;;;;5066828;28;20563;-79
2022/11/25 01:47:04;;;;;;;0.00;0.00;;;7.80;99.90;;;;;;5064054;28;20212;-79
2022/11/25 01:49:44;;;;;;;0.10;0.10;;;7.60;99.90;;;;;;5063472;28;20192;-79
2022/11/25 01:52:23;;;;;;;0.00;0.00;;;7.70;99.90;;;;;;5065709;28;20208;-79
2022/11/25 01:55:07;;;;;;;0.10;0.10;;;7.60;99.90;;;;;;5066012;28;20196;-79
2022/11/25 01:57:39;;;;;;;0.10;0.10;;;7.40;99.90;;;;;;5066184;28;20245;-80
2022/11/25 02:00:07;;;;;;;0.00;0.00;;;7.40;99.90;;;;;;5069048;28;20180;-80
2022/11/25 02:02:33;;;;;;;0.10;0.10;;;7.10;99.90;;;;;;5068423;28;20181;-80
2022/11/25 02:05:02;;;;;;;0.03;0.03;;;6.90;99.90;;;;;;5070261;28;20754;-79
2022/11/25 02:07:33;;;;;;;0.10;0.10;;;6.70;99.90;;;;;;5067206;28;20227;-79
2022/11/25 02:10:01;;;;;;;0.10;0.10;;;6.60;99.90;;;;;;5070049;28;20193;-80
2022/11/25 02:12:28;;;;;;;0.10;0.10;;;6.70;99.90;;;;;;5071516;28;20193;-80
2022/11/25 02:14:55;;;;;;;0.10;0.10;;;6.50;99.90;;;;;;5070209;28;20255;-80
2022/11/25 02:17:21;;;;;;;0.10;0.10;;;6.40;99.90;;;;;;5086506;28;20193;-80
2022/11/25 02:20:10;;;;;;;0.10;0.10;;;6.30;99.90;;;;;;5070075;28;20209;-80
2022/11/25 02:22:50;;;;;;;0.10;0.10;;;6.10;99.90;;;;;;5071569;28;20204;-79
2022/11/25 02:25:20;;;;;;;0.10;0.10;;;6.10;99.90;;;;;;5069163;28;20205;-80
2022/11/25 02:27:50;;;;;;;0.10;0.10;;;6.10;99.90;;;;;;5087474;28;20266;-80
2022/11/25 02:30:16;;;;;;;0.10;0.10;;;6.20;99.90;;;;;;5069526;28;20182;-79
2022/11/25 02:32:46;;;;;;;0.10;0.10;;;6.30;99.90;;;;;;5070032;28;20189;-80
2022/11/25 02:35:29;;;;;;;0.10;0.10;;;6.30;99.90;;;;;;5067403;28;20217;-80
2022/11/25 02:38:28;;;;;;;0.10;0.10;;;6.20;99.90;;;;;;5068946;28;20748;-80
2022/11/25 02:41:02;;;;;;;0.10;0.10;;;6.20;99.90;;;;;;5046082;28;20228;-81
2022/11/25 02:43:29;;;;;;;0.00;0.00;;;6.30;99.90;;;;;;5067113;28;20220;-80
2022/11/25 02:46:02;;;;;;;0.10;0.10;;;6.20;99.90;;;;;;5069144;28;20859;-80
2022/11/25 02:48:30;;;;;;;0.10;0.10;;;6.20;99.90;;;;;;5067167;28;20193;-80
2022/11/25 02:50:55;;;;;;;0.10;0.10;;;6.20;99.90;;;;;;5066291;28;20189;-80
2022/11/25 02:53:22;;;;;;;0.10;0.10;;;6.20;99.90;;;;;;5065534;28;20211;-80
2022/11/25 02:55:47;;;;;;;0.10;0.10;;;6.20;99.90;;;;;;5084450;28;20213;-80
2022/11/25 02:58:13;;;;;;;0.10;0.10;;;6.20;99.90;;;;;;5066947;28;20220;-80
2022/11/25 03:00:40;;;;;;;0.10;0.10;;;6.20;99.90;;;;;;5067925;28;20194;-80
2022/11/25 03:03:05;;;;;;;0.10;0.10;;;6.20;99.90;;;;;;5067034;28;20207;-80
2022/11/25 03:05:31;;;;;;;0.10;0.10;;;6.20;99.90;;;;;;5065930;28;20806;-80
2022/11/25 03:07:57;;;;;;;0.10;0.10;;;6.00;99.90;;;;;;5068838;28;21076;-80
2022/11/25 03:10:23;;;;;;;0.10;0.10;;;6.10;99.90;;;;;;5067048;28;20188;-80
2022/11/25 03:12:49;;;;;;;0.10;0.10;;;6.00;99.90;;;;;;5066609;28;20925;-80
2022/11/25 03:15:14;;;;;;;1.33;1.23;;;5.90;99.90;;;;;;5065626;28;20219;-80
2022/11/25 03:17:41;;;;;;;0.10;0.10;;;5.90;99.90;;;;;;5067379;28;20191;-80
2022/11/25 03:20:07;;;;;;;0.10;0.10;;;5.90;99.90;;;;;;5064235;28;20196;-80
2022/11/25 03:22:33;;;;;;;0.10;0.10;;;6.00;99.90;;;;;;5065278;28;20197;-80
2022/11/25 03:24:59;;;;;;;0.10;0.10;;;5.80;99.90;;;;;;5066214;28;20247;-80
2022/11/25 03:27:24;;;;;;;0.10;0.10;;;5.80;99.90;;;;;;5065586;28;20304;-80
2022/11/25 03:29:50;;;;;;;0.10;0.10;;;5.70;99.90;;;;;;5067444;28;20196;-80
2022/11/25 03:32:16;;;;;;;0.10;0.10;;;5.70;99.90;;;;;;5065729;28;20588;-80
2022/11/25 03:34:41;;;;;;;2.60;2.50;;;5.70;99.90;;;;;;5066886;28;20723;-80
2022/11/25 03:37:07;;;;;;;0.00;0.00;;;5.70;99.90;;;;;;5064839;28;20196;-80
2022/11/25 03:39:33;;;;;;;0.10;0.10;;;5.80;99.90;;;;;;5065878;28;20193;-80
2022/11/25 03:41:58;;;;;;;0.10;0.10;;;5.90;99.90;;;;;;5065731;28;20553;-79
2022/11/25 03:44:24;;;;;;;0.10;0.10;;;6.00;99.90;;;;;;5065746;28;20196;-80
2022/11/25 03:46:49;;;;;;;0.10;0.10;;;6.10;99.90;;;;;;5065231;28;20213;-80
2022/11/25 03:49:15;;;;;;;0.10;0.10;;;6.00;99.90;;;;;;5067320;28;20718;-80
2022/11/25 03:51:40;;;;;;;0.00;0.00;;;5.90;99.90;;;;;;5066984;28;20236;-80
2022/11/25 03:54:06;;;;;;;0.10;0.10;;;5.90;99.90;;;;;;5066190;28;20207;-80
2022/11/25 03:56:32;;;;;;;0.10;0.10;;;5.80;99.90;;;;;;5065703;28;20284;-80
2022/11/25 03:58:57;;;;;;;0.10;0.10;;;5.80;99.90;;;;;;5066805;28;20575;-80
2022/11/25 04:01:23;;;;;;;0.00;0.00;;;5.90;99.90;;;;;;5068716;28;20189;-80
2022/11/25 04:03:49;;;;;;;0.10;0.10;;;5.80;99.90;;;;;;5067146;28;20208;-80
2022/11/25 04:06:15;;;;;;;0.10;0.10;;;5.70;99.90;;;;;;5066933;28;20222;-80
2022/11/25 04:08:41;;;;;;;0.00;0.00;;;5.80;99.90;;;;;;5067135;28;20256;-80
2022/11/25 04:11:06;;;;;;;0.03;0.03;;;5.80;99.90;;;;;;5066573;28;20371;-80
2022/11/25 04:13:33;;;;;;;0.10;0.10;;;5.80;99.90;;;;;;5065423;28;20303;-80
2022/11/25 04:15:59;;;;;;;0.10;0.10;;;5.80;99.90;;;;;;5082147;28;20223;-80
2022/11/25 04:18:24;;;;;;;0.10;0.10;;;6.00;99.90;;;;;;5066901;28;20220;-80
2022/11/25 04:20:50;;;;;;;0.10;0.10;;;6.00;99.90;;;;;;5065414;28;20287;-80
2022/11/25 04:23:16;;;;;;;0.00;0.00;;;6.00;99.90;;;;;;5064719;28;20220;-80
2022/11/25 04:25:42;;;;;;;0.00;0.00;;;6.00;99.90;;;;;;5065676;28;20181;-80
2022/11/25 04:28:07;;;;;;;0.10;0.10;;;6.00;99.90;;;;;;5064722;28;20234;-80
2022/11/25 04:30:33;;;;;;;0.10;0.10;;;6.00;99.90;;;;;;5066029;28;20269;-80
2022/11/25 04:33:00;;;;;;;0.10;0.10;;;6.00;99.90;;;;;;5065818;28;20238;-80
2022/11/25 04:35:25;;;;;;;0.10;0.10;;;5.90;99.90;;;;;;5066288;28;20193;-80
2022/11/25 04:37:51;;;;;;;0.10;0.10;;;5.90;99.90;;;;;;5064208;28;20212;-80
2022/11/25 04:40:16;;;;;;;0.10;0.10;;;5.90;99.90;;;;;;5065379;28;20817;-80
2022/11/25 04:42:42;;;;;;;0.10;0.10;;;5.90;99.90;;;;;;5066372;28;20655;-80
2022/11/25 04:45:10;;;;;;;0.10;0.10;;;6.00;99.90;;;;;;5066129;28;20207;-80
2022/11/25 04:47:36;;;;;;;0.10;0.10;;;6.00;99.90;;;;;;5064530;28;20577;-80
2022/11/25 04:50:03;;;;;;;0.10;0.10;;;6.10;99.90;;;;;;5064098;28;20193;-80
2022/11/25 04:52:29;;;;;;;0.10;0.10;;;6.10;99.90;;;;;;5064127;28;20177;-80
2022/11/25 04:54:55;;;;;;;0.10;0.10;;;6.10;99.90;;;;;;5063534;28;20209;-80
2022/11/25 04:57:20;;;;;;;0.10;0.10;;;6.20;99.90;;;;;;5064862;28;20277;-80
2022/11/25 04:59:46;;;;;;;0.00;0.00;;;6.20;99.90;;;;;;5066801;28;20730;-80
2022/11/25 05:02:20;;;;;;;0.10;0.10;;;6.30;99.90;;;;;;5064568;28;20273;-80
2022/11/25 05:04:48;;;;;;;0.10;0.10;;;6.30;99.90;;;;;;5080792;28;20200;-80
2022/11/25 05:07:15;;;;;;;0.10;0.10;;;6.20;99.90;;;;;;5064552;28;20198;-80
2022/11/25 05:09:41;;;;;;;0.00;0.00;;;6.20;99.90;;;;;;5065496;28;20269;-80
2022/11/25 05:12:07;;;;;;;0.10;0.10;;;6.20;99.90;;;;;;5065714;28;21202;-80
2022/11/25 05:14:34;;;;;;;0.00;0.00;;;6.30;99.90;;;;;;5065820;28;20582;-80
2022/11/25 05:17:01;;;;;;;0.10;0.10;;;6.30;99.90;;;;;;5064612;28;20223;-80
2022/11/25 05:19:27;;;;;;;0.10;0.10;;;6.40;99.90;;;;;;5066176;28;20272;-80
2022/11/25 05:21:53;;;;;;;0.10;0.10;;;6.30;99.90;;;;;;5064584;28;20264;-80
2022/11/25 05:24:18;;;;;;;0.00;0.00;;;6.20;99.90;;;;;;5064427;28;20212;-80
2022/11/25 05:26:44;;;;;;;0.07;0.07;;;6.30;99.90;;;;;;5065614;28;20617;-80
2022/11/25 05:29:10;;;;;;;0.10;0.10;;;6.30;99.90;;;;;;5065073;28;20189;-80
2022/11/25 05:31:35;;;;;;;0.10;0.10;;;6.30;99.90;;;;;;5064134;28;20195;-80
2022/11/25 05:34:01;;;;;;;0.10;0.10;;;6.30;99.90;;;;;;5064467;28;20201;-80
2022/11/25 05:36:27;;;;;;;0.10;0.10;;;6.40;99.90;;;;;;5062875;28;20188;-80
2022/11/25 05:38:56;;;;;;;0.10;0.10;;;6.40;99.90;;;;;;5065078;28;20185;-80
2022/11/25 05:41:22;;;;;;;0.10;0.10;;;6.40;99.90;;;;;;5064035;28;20296;-80
2022/11/25 05:43:47;;;;;;;0.10;0.10;;;6.40;99.90;;;;;;5063797;28;20930;-80
2022/11/25 05:46:13;;;;;;;0.10;0.10;;;6.40;99.90;;;;;;5063717;28;20185;-80
2022/11/25 05:48:39;;;;;;;0.10;0.10;;;6.40;99.90;;;;;;5063843;28;20181;-80
2022/11/25 05:51:05;;;;;;;0.10;0.10;;;6.40;99.90;;;;;;5064324;28;20191;-80
2022/11/25 05:53:31;;;;;;;0.10;0.10;;;6.30;99.90;;;;;;5064144;28;20719;-80
2022/11/25 05:55:59;;;;;;;0.10;0.10;;;6.40;99.90;;;;;;5063933;28;20693;-80
2022/11/25 05:58:25;;;;;;;0.00;0.00;;;6.60;99.90;;;;;;5062489;28;20197;-80
2022/11/25 06:00:51;;;;;;;0.10;0.10;;;6.80;99.90;;;;;;5062992;28;20185;-80
2022/11/25 06:03:17;;;;;;;0.10;0.10;;;6.90;99.90;;;;;;5064837;28;20216;-80
2022/11/25 06:05:43;;;;;;;0.10;0.10;;;7.00;99.90;;;;;;5063596;28;20350;-80
2022/11/25 06:08:09;;;;;;;0.10;0.10;;;7.00;99.90;;;;;;5060599;28;20319;-80
2022/11/25 06:10:38;;;;;;;0.10;0.10;;;6.90;99.90;;;;;;5061513;28;20205;-81
2022/11/25 06:13:03;;;;;;;0.10;0.10;;;6.70;99.90;;;;;;5078226;28;20284;-81
2022/11/25 06:15:29;;;;;;;0.10;0.10;;;6.80;99.90;;;;;;5061851;28;20714;-81
2022/11/25 06:17:54;;;;;;;0.10;0.10;;;6.90;99.90;;;;;;5063850;28;20270;-81
2022/11/25 06:20:20;;;;;;;0.10;0.10;;;6.70;99.90;;;;;;5062697;28;20279;-81
2022/11/25 06:22:46;;;;;;;0.10;0.10;;;6.50;99.90;;;;;;5061525;28;20188;-82
2022/11/25 06:25:12;;;;;;;0.10;0.10;;;6.60;99.90;;;;;;5064113;28;20220;-81
2022/11/25 06:27:37;;;;;;;0.10;0.10;;;6.80;99.90;;;;;;5059158;28;20210;-81
2022/11/25 06:30:03;;;;;;;0.10;0.10;;;6.90;99.90;;;;;;5062919;28;20713;-81
2022/11/25 06:32:29;;;;;;;0.10;0.10;;;7.00;99.90;;;;;;5062487;28;20188;-81
2022/11/25 06:34:54;;;;;;;0.10;0.10;;;6.90;99.90;;;;;;5062787;28;20209;-82
2022/11/25 06:37:20;;;;;;;0.10;0.10;;;6.80;99.90;;;;;;5063438;28;20679;-79
2022/11/25 06:39:46;;;;;;;0.10;0.10;;;6.70;99.90;;;;;;5062151;28;20186;-80
2022/11/25 06:42:11;;;;;;;0.10;0.10;;;6.60;99.90;;;;;;5060832;28;20660;-80
2022/11/25 06:44:37;;;;;;;0.10;0.10;;;6.70;99.90;;;;;;5061136;28;20217;-80
2022/11/25 06:47:03;;;;;;;0.10;0.10;;;6.90;99.90;;;;;;5063481;28;20553;-80
2022/11/25 06:49:28;;;;;;;0.10;0.10;;;7.00;99.90;;;;;;5066603;28;20190;-79
2022/11/25 06:51:54;;;;;;;0.00;0.00;;;6.70;99.90;;;;;;5065752;28;20211;-80
2022/11/25 06:54:19;;;;;;;0.10;0.10;;;6.60;99.90;;;;;;5064390;28;20252;-87
2022/11/25 06:56:50;;;;;;;0.10;0.10;;;6.30;99.90;;;;;;5061177;28;20647;-79
2022/11/25 06:59:17;;;;;;;0.00;0.00;;;6.20;99.90;;;;;;5063342;28;20189;-80
2022/11/25 07:01:43;;;;;;;0.10;0.10;;;6.30;99.90;;;;;;5061938;28;20201;-79
2022/11/25 07:04:08;;;;;;;0.10;0.10;;;6.40;99.90;;;;;;5059246;28;20216;-80
2022/11/25 07:06:34;;;;;;;0.00;0.00;;;6.30;99.90;;;;;;5058534;28;20216;-81
2022/11/25 07:09:00;;;;;;;0.00;0.00;;;6.30;99.90;;;;;;5062338;28;20189;-81
2022/11/25 07:11:32;;;;;;;0.10;0.10;;;6.30;99.90;;;;;;5063674;28;20183;-81
2022/11/25 07:14:06;;;;;;;0.10;0.10;;;6.30;99.90;;;;;;5064915;28;20248;-81
2022/11/25 07:16:32;;;;;;;0.10;0.10;;;6.30;99.90;;;;;;5063746;28;20649;-82
2022/11/25 07:19:02;;;;;;;0.10;0.10;;;6.30;99.90;;;;;;5064654;28;20190;-81
2022/11/25 07:21:29;;;;;;;0.00;0.00;;;6.50;99.90;;;;;;5080821;28;20220;-81
2022/11/25 07:23:55;;;;;;;0.00;0.00;;;6.50;99.90;;;;;;5064083;28;20342;-81
2022/11/25 07:26:26;;;;;;;0.10;0.10;;;6.60;99.90;;;;;;5063774;28;21055;-80
2022/11/25 07:28:53;;;;;;;0.10;0.10;;;6.60;99.90;;;;;;5079999;28;20278;-81
2022/11/25 07:31:30;;;;;;;0.10;0.10;;;6.70;99.90;;;;;;5080484;28;20188;-81
2022/11/25 07:34:01;;;;;;;0.10;0.10;;;6.90;99.90;;;;;;5065700;28;20239;-81
2022/11/25 07:36:28;;;;;;;0.10;0.10;;;6.60;99.90;;;;;;5063763;28;20186;-80
2022/11/25 07:38:54;;;;;;;0.10;0.10;;;6.70;99.90;;;;;;5063162;28;20185;-80
2022/11/25 07:41:23;;;;;;;0.10;0.10;;;6.70;99.90;;;;;;5063725;28;20673;-80
2022/11/25 07:43:51;;;;;;;0.10;0.10;;;6.60;99.90;;;;;;5063163;28;20229;-80
2022/11/25 07:46:31;;;;;;;0.00;0.00;;;6.50;99.90;;;;;;5062451;28;20210;-80
2022/11/25 07:49:00;;;;;;;0.00;0.00;;;6.70;99.90;;;;;;5062213;28;20248;-81
2022/11/25 07:51:38;;;;;;;0.10;0.10;;;6.60;99.90;;;;;;5062733;28;20193;-81
2022/11/25 07:54:06;;;;;;;0.10;0.10;;;6.70;99.90;;;;;;5064925;28;20851;-81
2022/11/25 07:56:34;;;;;;;0.10;0.10;;;6.70;99.90;;;;;;5064450;28;20189;-81
2022/11/25 07:59:00;;;;;;;0.07;0.07;;;6.70;99.90;;;;;;5063896;28;20191;-82
2022/11/25 08:01:26;;;;;;;0.00;0.00;;;6.90;99.90;;;;;;5066931;28;20189;-81
2022/11/25 08:03:52;;;;;;;0.07;0.07;;;7.00;99.90;;;;;;5071103;28;20209;-83
2022/11/25 08:06:20;;;;;;;0.10;0.10;;;7.20;99.90;;;;;;5067356;28;20185;-82
2022/11/25 08:08:46;;;;;;;0.03;0.03;;;7.30;99.90;;;;;;5069322;28;20191;-83
2022/11/25 08:11:14;;;;;;;0.10;0.10;;;7.40;99.90;;;;;;5068639;28;20191;-82
2022/11/25 08:13:40;;;;;;;0.10;0.10;;;7.40;99.90;;;;;;5072953;28;20299;-81
2022/11/25 08:16:07;;;;;;;0.10;0.10;;;6.80;99.90;;;;;;5067304;28;20698;-83
2022/11/25 08:18:33;;;;;;;0.10;0.10;;;6.80;99.90;;;;;;5082808;28;20290;-81
2022/11/25 08:21:05;;;;;;;0.00;0.00;;;6.70;99.90;;;;;;5068866;28;20667;-80
2022/11/25 08:23:32;;;;;;;0.10;0.10;;;6.90;99.90;;;;;;5065857;28;20295;-80
2022/11/25 08:26:03;;;;;;;0.03;0.03;;;7.10;99.90;;;;;;5065865;28;20207;-80
2022/11/25 08:28:29;;;;;;;0.10;0.10;;;7.20;99.90;;;;;;5064722;28;20216;-80
2022/11/25 08:31:09;;;;;;;0.10;0.10;;;7.40;99.90;;;;;;5080281;28;20181;-79
2022/11/25 08:33:34;;;;;;;0.03;0.03;;;7.60;99.90;;;;;;5064783;28;20621;-80
2022/11/25 08:36:00;;;;;;;0.20;0.20;;;7.70;99.90;;;;;;5065297;28;20315;-81
2022/11/25 08:38:26;;;;;;;0.10;0.10;;;7.90;99.90;;;;;;5066210;28;20197;-81
2022/11/25 08:40:52;;;;;;;0.00;0.00;;;7.90;99.90;;;;;;5063748;28;20195;-81
2022/11/25 08:43:20;;;;;;;0.10;0.10;;;8.00;99.90;;;;;;5065886;28;20209;-80
2022/11/25 08:45:47;;;;;;;0.10;0.10;;;8.00;99.90;;;;;;5063079;28;20203;-80
2022/11/25 08:48:13;;;;;;;0.10;0.10;;;8.10;99.90;;;;;;5064653;28;20312;-79
2022/11/25 08:50:43;;;;;;;0.10;0.10;;;7.80;99.90;;;;;;5065621;28;20181;-80
2022/11/25 08:53:09;;;;;;;0.10;0.10;;;7.40;99.90;;;;;;5069180;28;20217;-80
2022/11/25 08:55:37;;;;;;;0.07;0.07;;;7.50;99.90;;;;;;5068175;28;20273;-80
2022/11/25 08:58:02;;;;;;;0.10;0.10;;;7.20;99.90;;;;;;5066120;28;20200;-80
2022/11/25 09:00:28;;;;;;;0.10;0.10;;;7.20;99.90;;;;;;5066185;28;20306;-80
2022/11/25 09:02:53;;;;;;;0.00;0.00;;;7.20;99.90;;;;;;5067814;28;20193;-81
2022/11/25 09:05:19;;;;;;;0.10;0.10;;;7.40;99.90;;;;;;5065109;28;20220;-80
2022/11/25 09:07:44;;;;;;;0.10;0.10;;;7.70;99.90;;;;;;5065678;28;20205;-80
2022/11/25 09:10:15;;;;;;;0.10;0.10;;;7.80;99.90;;;;;;5065294;28;20181;-80
2022/11/25 09:12:40;;;;;;;0.10;0.10;;;7.80;99.90;;;;;;5066865;28;20178;-80
2022/11/25 09:15:06;;;;;;;0.03;0.03;;;7.80;99.90;;;;;;5083305;28;20273;-80
2022/11/25 09:17:34;;;;;;;0.10;0.10;;;7.80;99.90;;;;;;5065730;28;20220;-80
2022/11/25 09:19:59;;;;;;;0.10;0.10;;;7.90;99.90;;;;;;5066609;28;20398;-80
2022/11/25 09:22:25;;;;;;;0.10;0.10;;;8.10;99.90;;;;;;5066360;28;20283;-80
2022/11/25 09:24:50;;;;;;;0.13;0.13;;;8.20;99.90;;;;;;5064977;28;20653;-80
2022/11/25 09:27:16;;;;;;;0.10;0.10;;;8.30;99.90;;;;;;5065458;28;20769;-81
2022/11/25 09:29:41;;;;;;;0.10;0.10;;;8.40;99.90;;;;;;5066419;28;20270;-80
2022/11/25 09:32:07;;;;;;;0.10;0.10;;;8.30;99.90;;;;;;5066640;28;20187;-81
2022/11/25 09:34:33;;;;;;;0.10;0.10;;;8.40;99.90;;;;;;5063308;28;20219;-80
2022/11/25 09:36:58;;;;;;;0.00;0.00;;;8.40;99.90;;;;;;5064470;28;20197;-81
2022/11/25 09:39:28;;;;;;;0.00;0.00;;;8.50;99.90;;;;;;5065239;28;20193;-81
2022/11/25 09:48:36;;;;;;;0.10;0.10;;;8.00;99.90;;;;;;5064658;28;20263;-80
2022/11/25 09:51:35;;;;;;;0.10;0.10;;;8.20;99.90;;;;;;5064581;28;20257;-81
2022/11/25 09:54:17;;;;;;;0.10;0.10;;;8.40;99.90;;;;;;5065618;28;20681;-80
2022/11/25 09:57:20;;;;;;;0.03;0.03;;;8.30;99.90;;;;;;5065020;28;20256;-80
2022/11/25 10:00:11;;;;;;;0.10;0.10;;;8.30;99.90;;;;;;5042928;28;20195;-81
2022/11/25 10:02:46;;;;;;;0.10;0.10;;;8.30;99.90;;;;;;5062466;28;20194;-81
2022/11/25 10:05:18;;;;;;;0.10;0.10;;;8.40;99.90;;;;;;5061708;28;20220;-82
2022/11/25 10:07:52;;;;;;;0.10;0.10;;;8.50;99.90;;;;;;5062227;28;20218;-80
2022/11/25 10:10:24;;;;;;;0.10;0.10;;;8.80;99.90;;;;;;5062743;28;20259;-82
2022/11/25 10:12:53;;;;;;;0.10;0.10;;;8.80;99.90;;;;;;5063123;28;20907;-81
2022/11/25 10:15:42;;;;;;;0.10;0.10;;;9.00;99.90;;;;;;5061294;28;20229;-81
2022/11/25 10:18:50;;;;;;;0.10;0.10;;;9.00;99.90;;;;;;5063155;28;20199;-80
2022/11/25 10:21:15;;;;;;;0.10;0.10;;;9.40;99.90;;;;;;5064138;28;20614;-80
2022/11/25 10:23:41;;;;;;;0.10;0.10;;;9.60;99.90;;;;;;5069540;28;20214;-81
2022/11/25 10:26:14;;;;;;;0.10;0.10;;;9.60;99.90;;;;;;5068677;28;20690;-81
2022/11/25 10:28:45;;;;;;;0.10;0.10;;;9.60;99.90;;;;;;5068251;28;20214;-81
2022/11/25 10:31:18;;;;;;;0.00;0.00;;;10.10;99.90;;;;;;5068052;28;20186;-81
2022/11/25 10:33:53;;;;;;;0.10;0.10;;;10.40;99.90;;;;;;5068269;28;20199;-82
2022/11/25 10:36:23;;;;;;;0.10;0.10;;;10.40;99.90;;;;;;5066484;28;20581;-81
2022/11/25 10:39:16;;;;;;;0.10;0.10;;;10.40;99.90;;;;;;5066760;28;20175;-83
2022/11/25 10:42:02;;;;;;;0.10;0.10;;;10.50;99.90;;;;;;5067084;28;20180;-83
2022/11/25 10:44:37;;;;;;;0.10;0.10;;;10.60;99.90;;;;;;5083123;28;20274;-83
2022/11/25 10:47:11;;;;;;;0.10;0.10;;;10.50;99.90;;;;;;5080880;28;20262;-83
2022/11/25 10:49:44;;;;;;;0.10;0.10;;;10.40;99.90;;;;;;5065170;28;20912;-82
2022/11/25 10:52:12;;;;;;;0.10;0.10;;;10.40;99.90;;;;;;5063304;28;20662;-82
2022/11/25 10:54:39;;;;;;;0.10;0.10;;;10.40;99.90;;;;;;5083236;28;20204;-82
2022/11/25 10:57:18;;;;;;;0.10;0.10;;;9.70;99.90;;;;;;5081577;28;20202;-82
2022/11/25 10:59:57;;;;;;;0.00;0.00;;;9.90;99.90;;;;;;5064889;28;20216;-82
2022/11/25 11:02:26;;;;;;;0.10;0.10;;;9.80;99.90;;;;;;5066993;28;20191;-82
2022/11/25 11:05:08;;;;;;;0.10;0.10;;;9.80;99.90;;;;;;5067048;28;20211;-81
2022/11/25 11:07:38;;;;;;;0.10;0.10;;;10.00;99.90;;;;;;5064774;28;20759;-81
2022/11/25 11:10:23;;;;;;;0.10;0.10;;;10.10;99.90;;;;;;5065258;28;20556;-81
2022/11/25 11:12:57;;;;;;;0.10;0.10;;;10.10;99.90;;;;;;5064587;28;20202;-81
2022/11/25 11:15:45;;;;;;;0.10;0.10;;;10.30;99.90;;;;;;5064098;28;20686;-81
2022/11/25 11:18:27;;;;;;;0.10;0.10;;;10.40;99.90;;;;;;5063543;28;20223;-80
2022/11/25 11:20:55;;;;;;;0.10;0.10;;;10.60;99.90;;;;;;5065163;28;20183;-81
2022/11/25 11:23:22;;;;;;;0.10;0.10;;;10.90;99.90;;;;;;5065470;28;20696;-81
2022/11/25 11:26:08;;;;;;;0.10;0.10;;;11.10;99.90;;;;;;5081510;28;20231;-81
2022/11/25 11:28:34;;;;;;;0.10;0.10;;;11.10;99.90;;;;;;5064550;28;20235;-81
2022/11/25 11:31:19;;;;;;;0.10;0.10;;;11.00;99.90;;;;;;5065883;28;20181;-80
2022/11/25 11:33:47;;;;;;;0.00;0.00;;;11.00;99.90;;;;;;5065049;28;20200;-80
2022/11/25 11:36:28;;;;;;;0.10;0.10;;;11.00;99.90;;;;;;5061697;28;20628;-80
2022/11/25 11:39:02;;;;;;;0.10;0.10;;;11.10;99.90;;;;;;5063430;28;20328;-80
2022/11/25 11:41:41;;;;;;;0.00;0.00;;;11.10;99.90;;;;;;5063458;28;20206;-80
2022/11/25 11:44:12;;;;;;;0.10;0.10;;;10.80;99.90;;;;;;5064636;28;20207;-80
2022/11/25 11:46:56;;;;;;;0.10;0.10;;;10.50;99.90;;;;;;5063386;28;20180;-81
2022/11/25 11:49:34;;;;;;;0.10;0.10;;;10.30;99.90;;;;;;5064486;28;21277;-80
2022/11/25 11:52:05;;;;;;;0.00;0.00;;;10.30;99.90;;;;;;5064482;28;20183;-79
2022/11/25 11:54:39;;;;;;;0.10;0.10;;;10.20;99.90;;;;;;5063992;28;20219;-80
2022/11/25 11:57:38;;;;;;;0.10;0.10;;;10.30;99.90;;;;;;5064152;28;20222;-80
2022/11/25 12:00:16;;;;;;;0.07;0.07;;;10.30;99.90;;;;;;5063831;28;20671;-80
2022/11/25 12:02:51;;;;;;;0.10;0.10;;;10.20;99.90;;;;;;5063929;28;20192;-80
2022/11/25 12:05:21;;;;;;;0.00;0.00;;;10.30;99.90;;;;;;5066725;28;20228;-80
2022/11/25 12:08:21;;;;;;;0.10;0.10;;;10.20;99.90;;;;;;5064474;28;20208;-81
2022/11/25 12:10:53;;;;;;;0.07;0.07;;;10.20;99.90;;;;;;5081229;28;20214;-81
2022/11/25 12:13:18;;;;;;;0.10;0.10;;;10.10;99.90;;;;;;5064354;28;20262;-80
2022/11/25 12:16:10;;;;;;;0.10;0.10;;;10.00;99.90;;;;;;5062888;28;20210;-80
2022/11/25 12:18:47;;;;;;;0.10;0.10;;;10.10;99.90;;;;;;5064231;28;20226;-80
2022/11/25 12:21:37;;;;;;;0.10;0.10;;;10.20;99.90;;;;;;5066677;28;20287;-80
2022/11/25 12:24:31;;;;;;;0.10;0.10;;;10.50;99.90;;;;;;5066849;28;20266;-81
2022/11/25 12:27:12;;;;;;;0.10;0.10;;;10.20;99.90;;;;;;5065500;28;20209;-80
2022/11/25 12:29:55;;;;;;;0.10;0.10;;;10.60;99.90;;;;;;5060117;28;20662;-81
2022/11/25 12:32:20;;;;;;;0.10;0.10;;;10.70;99.90;;;;;;5064117;28;20542;-80
2022/11/25 12:35:24;;;;;;;0.10;0.10;;;10.90;99.90;;;;;;5066115;28;20197;-80
2022/11/25 12:37:55;;;;;;;0.10;0.10;;;10.90;99.90;;;;;;5062786;28;20191;-80
2022/11/25 12:40:26;;;;;;;0.10;0.10;;;11.10;99.90;;;;;;5065111;28;20187;-81
2022/11/25 12:42:55;;;;;;;0.10;0.10;;;11.40;99.90;;;;;;5067350;28;20204;-81
2022/11/25 12:45:23;;;;;;;0.10;0.10;;;11.50;99.90;;;;;;5063293;28;20288;-80
2022/11/25 12:47:50;;;;;;;0.10;0.10;;;11.60;99.90;;;;;;5064700;28;20208;-80
2022/11/25 12:50:44;;;;;;;0.10;0.10;;;11.00;99.90;;;;;;5063119;28;20181;-80
2022/11/25 12:53:34;;;;;;;0.07;0.07;;;10.80;99.90;;;;;;5065110;28;20189;-81
2022/11/25 12:56:02;;;;;;;0.10;0.10;;;11.00;99.90;;;;;;5064461;28;20557;-80
2022/11/25 12:58:50;;;;;;;0.10;0.10;;;11.30;99.90;;;;;;5064022;28;20265;-80
2022/11/25 13:01:34;;;;;;;0.10;0.10;;;11.50;99.90;;;;;;5063925;28;20188;-80
2022/11/25 13:04:33;;;;;;;0.10;0.10;;;11.60;99.90;;;;;;5067114;28;20204;-80
2022/11/25 13:07:11;;;;;;;0.10;0.10;;;11.70;99.90;;;;;;5081741;28;20209;-80
2022/11/25 13:09:55;;;;;;;0.10;0.10;;;11.80;99.90;;;;;;5066333;28;20200;-80
2022/11/25 13:12:38;;;;;;;0.10;0.10;;;11.90;99.90;;;;;;5065541;28;20183;-80
2022/11/25 13:15:15;;;;;;;0.10;0.10;;;11.80;99.90;;;;;;5065532;28;20237;-80
2022/11/25 13:17:44;;;;;;;0.03;0.03;;;11.80;99.90;;;;;;5081458;28;20192;-80
2022/11/25 13:20:28;;;;;;;0.10;0.10;;;11.80;99.90;;;;;;5067198;28;20740;-80